createdAt,value
2022-11-03T00:03:44.724Z,10.15
2022-11-03T00:08:50.918Z,10.19
2022-11-03T00:13:57.047Z,8.32
2022-11-03T00:19:03.168Z,10.54
2022-11-03T00:24:09.374Z,7.11
2022-11-03T00:29:15.555Z,10.89
2022-11-03T00:34:21.728Z,10.59
2022-11-03T00:39:28.206Z,8.18
2022-11-03T00:44:34.427Z,8.60
2022-11-03T00:49:40.504Z,10.38
2022-11-03T00:54:48.999Z,10.36
2022-11-03T00:59:52.399Z,10.07
2022-11-03T01:04:58.688Z,9.08
2022-11-03T01:10:05.121Z,8.98
2022-11-03T01:15:11.440Z,10.70
2022-11-03T01:20:17.492Z,10.52
2022-11-03T01:25:24.125Z,10.16
2022-11-03T01:30:30.237Z,9.12
2022-11-03T01:35:36.463Z,10.50
2022-11-03T01:40:42.591Z,9.69
2022-11-03T01:45:48.769Z,12.42
2022-11-03T01:50:54.821Z,9.98
2022-11-03T01:56:00.987Z,7.00
2022-11-03T02:01:07.902Z,8.63
2022-11-03T02:06:14.186Z,9.66
2022-11-03T02:11:20.264Z,10.58
2022-11-03T02:16:27.202Z,12.34
2022-11-03T02:21:33.389Z,12.56
2022-11-03T02:26:39.698Z,11.15
2022-11-03T02:31:45.822Z,12.30
2022-11-03T02:36:52.195Z,12.53
2022-11-03T02:41:58.301Z,9.44
2022-11-03T02:47:04.571Z,11.07
2022-11-03T02:52:10.686Z,10.58
2022-11-03T02:57:16.865Z,10.11
2022-11-03T03:02:23.044Z,11.41
2022-11-03T03:07:29.099Z,8.85
2022-11-03T03:12:35.277Z,12.66
2022-11-03T03:17:41.527Z,16.56
2022-11-03T03:22:47.573Z,13.93
2022-11-03T03:27:53.774Z,11.99
2022-11-03T03:32:59.864Z,11.29
2022-11-03T03:38:06.289Z,11.86
2022-11-03T03:43:12.184Z,10.21
2022-11-03T03:48:18.615Z,10.62
2022-11-03T03:53:24.675Z,12.32
2022-11-03T03:58:30.831Z,12.63
2022-11-03T04:03:36.988Z,9.54
2022-11-03T04:08:43.292Z,10.18
2022-11-03T04:13:49.332Z,12.50
2022-11-03T04:18:55.750Z,11.38
2022-11-03T04:24:01.907Z,13.96
2022-11-03T04:29:08.125Z,11.63
2022-11-03T04:34:14.250Z,13.27
2022-11-03T04:39:20.456Z,8.69
2022-11-03T04:44:26.573Z,10.92
2022-11-03T04:49:32.798Z,9.94
2022-11-03T04:54:38.941Z,8.90
2022-11-03T04:59:45.155Z,12.10
2022-11-03T05:04:51.238Z,15.39
2022-11-03T05:09:57.873Z,10.87
2022-11-03T05:15:04.035Z,11.24
2022-11-03T05:20:10.296Z,10.44
2022-11-03T05:25:16.409Z,9.92
2022-11-03T05:30:22.950Z,11.62
2022-11-03T05:35:29.014Z,8.50
2022-11-03T05:40:35.332Z,12.71
2022-11-03T05:45:41.470Z,8.07
2022-11-03T05:50:47.862Z,8.72
2022-11-03T05:55:53.938Z,9.20
2022-11-03T06:01:00.141Z,8.27
2022-11-03T06:06:06.218Z,11.24
2022-11-03T06:11:12.339Z,9.10
2022-11-03T06:16:18.420Z,8.12
2022-11-03T06:21:24.662Z,10.92
2022-11-03T06:26:30.797Z,11.58
2022-11-03T06:31:36.976Z,7.02
2022-11-03T06:36:43.038Z,10.26
2022-11-03T06:41:49.254Z,8.96
2022-11-03T06:46:55.333Z,7.71
2022-11-03T06:52:01.565Z,10.27
2022-11-03T06:57:07.992Z,11.46
2022-11-03T07:02:14.327Z,8.87
2022-11-03T07:07:20.278Z,13.26
2022-11-03T07:12:26.424Z,10.38
2022-11-03T07:17:32.486Z,9.47
2022-11-03T07:22:38.636Z,9.09
2022-11-03T07:27:44.721Z,7.39
2022-11-03T07:32:50.841Z,8.92
2022-11-03T07:37:56.897Z,12.02
2022-11-03T07:43:03.050Z,9.50
2022-11-03T07:48:09.397Z,13.10
2022-11-03T07:53:15.215Z,14.33
2022-11-03T07:58:21.293Z,12.62
2022-11-03T08:03:27.491Z,9.39
2022-11-03T08:08:33.590Z,10.31
2022-11-03T08:13:40.385Z,14.57
2022-11-03T08:18:46.464Z,8.62
2022-11-03T08:23:52.777Z,10.18
2022-11-03T08:28:58.861Z,9.85
2022-11-03T08:34:05.154Z,12.34
2022-11-03T08:39:11.592Z,9.23
2022-11-03T08:44:17.748Z,10.71
2022-11-03T08:49:23.812Z,10.58
2022-11-03T08:54:30.014Z,12.34
2022-11-03T08:59:36.051Z,8.53
2022-11-03T09:04:42.222Z,11.76
2022-11-03T09:10:18.791Z,11.69
2022-11-03T09:14:54.410Z,12.89
2022-11-03T09:20:00.467Z,11.60
2022-11-03T09:25:06.770Z,12.13
2022-11-03T09:30:15.131Z,10.21
2022-11-03T09:35:21.443Z,10.34
2022-11-03T09:40:27.480Z,9.96
2022-11-03T09:45:33.702Z,9.88
2022-11-03T09:50:39.760Z,10.76
2022-11-03T09:55:45.999Z,11.25
2022-11-03T10:00:52.092Z,9.64
2022-11-03T10:05:58.223Z,9.49
2022-11-03T10:11:04.315Z,11.26
2022-11-03T10:16:10.447Z,10.56
2022-11-03T10:21:16.545Z,9.58
2022-11-03T10:26:22.726Z,12.13
2022-11-03T10:31:29.580Z,12.04
2022-11-03T10:36:35.810Z,14.19
2022-11-03T10:41:42.031Z,11.17
2022-11-03T10:46:51.049Z,8.25
2022-11-03T10:51:53.832Z,9.58
2022-11-03T10:57:00.435Z,10.66
2022-11-03T11:02:06.587Z,8.97
2022-11-03T11:07:12.656Z,9.11
2022-11-03T11:12:18.715Z,8.79
2022-11-03T11:17:24.853Z,5.66
2022-11-03T11:22:30.925Z,10.31
2022-11-03T11:27:37.121Z,9.60
2022-11-03T11:32:45.415Z,7.36
2022-11-03T11:37:51.563Z,9.45
2022-11-03T11:42:57.622Z,9.79
2022-11-03T11:48:03.941Z,7.77
2022-11-03T11:53:10.227Z,7.66
2022-11-03T11:58:16.326Z,10.32
2022-11-03T12:03:22.458Z,7.65
2022-11-03T12:08:28.641Z,11.05
2022-11-03T12:13:34.693Z,8.84
2022-11-03T12:18:44.723Z,8.05
2022-11-03T12:23:46.624Z,6.31
2022-11-03T12:28:52.818Z,7.26
2022-11-03T12:33:58.903Z,7.67
2022-11-03T12:39:05.450Z,9.57
2022-11-03T12:44:11.580Z,9.64
2022-11-03T12:49:17.769Z,8.19
2022-11-03T12:54:23.845Z,6.53
2022-11-03T12:59:30.081Z,5.97
2022-11-03T13:04:36.137Z,7.54
2022-11-03T13:09:42.431Z,7.03
2022-11-03T13:14:48.817Z,8.07
2022-11-03T13:19:54.904Z,7.38
2022-11-03T13:25:00.729Z,7.04
2022-11-03T13:30:06.892Z,7.39
2022-11-03T13:35:14.138Z,7.50
2022-11-03T13:40:50.383Z,7.05
2022-11-03T13:45:24.368Z,8.68
2022-11-03T13:50:30.735Z,6.85
2022-11-03T13:55:43.876Z,7.54
2022-11-03T14:00:42.488Z,7.37
2022-11-03T14:05:48.546Z,6.82
2022-11-03T14:10:54.846Z,5.87
2022-11-03T14:16:01.267Z,6.52
2022-11-03T14:21:07.451Z,7.94
2022-11-03T14:26:32.937Z,8.05
2022-11-03T14:31:19.562Z,7.17
2022-11-03T14:36:25.637Z,9.07
2022-11-03T14:41:31.796Z,9.11
2022-11-03T14:46:37.940Z,7.13
2022-11-03T14:51:44.227Z,7.70
2022-11-03T14:56:50.742Z,6.69
2022-11-03T15:01:57.509Z,7.31
2022-11-03T15:07:03.490Z,8.46
2022-11-03T15:12:09.713Z,12.67
2022-11-03T15:17:15.758Z,7.84
2022-11-03T15:27:27.672Z,6.48
2022-11-03T15:32:36.426Z,7.80
2022-11-03T15:37:39.548Z,7.54
2022-11-03T15:42:46.076Z,7.54
2022-11-03T15:47:55.924Z,10.74
2022-11-03T15:52:58.029Z,5.80
2022-11-03T15:58:04.310Z,6.87
2022-11-03T16:03:10.543Z,6.04
2022-11-03T16:08:16.489Z,8.33
2022-11-03T16:13:23.339Z,8.44
2022-11-03T16:18:28.379Z,8.67
2022-11-03T16:23:34.561Z,8.54
2022-11-03T16:28:40.738Z,6.49
2022-11-03T16:33:46.924Z,6.85
2022-11-03T16:38:52.996Z,8.02
2022-11-03T16:43:59.181Z,8.69
2022-11-03T16:49:05.417Z,7.40
2022-11-03T16:54:11.676Z,9.45
2022-11-03T16:59:18.085Z,9.94
2022-11-03T17:04:24.289Z,8.11
2022-11-03T17:09:30.389Z,7.86
2022-11-03T17:14:36.558Z,7.64
2022-11-03T17:19:42.675Z,6.64
2022-11-03T17:24:49.026Z,7.98
2022-11-03T17:29:55.054Z,5.12
2022-11-03T17:35:01.338Z,9.55
2022-11-03T17:40:07.640Z,9.77
2022-11-03T17:45:13.836Z,6.41
2022-11-03T17:50:19.955Z,7.21
2022-11-03T17:56:23.326Z,5.24
2022-11-03T18:01:00.204Z,6.99
2022-11-03T18:06:06.335Z,5.64
2022-11-03T18:11:12.421Z,7.70
2022-11-03T18:16:19.047Z,7.16
2022-11-03T18:21:25.464Z,7.03
2022-11-03T18:26:31.810Z,5.11
2022-11-03T18:31:37.952Z,5.83
2022-11-03T18:36:44.230Z,5.68
2022-11-03T18:41:50.419Z,6.40
2022-11-03T18:46:56.740Z,7.25
2022-11-03T18:52:04.263Z,7.77
2022-11-03T18:57:08.677Z,7.83
2022-11-03T19:02:15.048Z,8.06
2022-11-03T19:07:21.025Z,6.22
2022-11-03T19:12:27.166Z,5.78
2022-11-03T19:17:33.467Z,9.64
2022-11-03T19:22:39.544Z,6.14
2022-11-03T19:27:45.766Z,5.75
2022-11-03T19:32:52.203Z,7.21
2022-11-03T19:37:58.509Z,6.37
2022-11-03T19:43:04.633Z,6.11
2022-11-03T19:48:23.855Z,7.08
2022-11-03T19:53:16.739Z,6.38
2022-11-03T19:58:22.959Z,7.52
2022-11-03T20:03:29.012Z,7.47
2022-11-03T20:08:35.327Z,8.98
2022-11-03T20:13:41.508Z,7.93
2022-11-03T20:18:47.742Z,5.77
2022-11-03T20:23:54.321Z,6.92
2022-11-03T20:29:00.532Z,6.14
2022-11-03T20:34:06.730Z,6.81
2022-11-03T20:39:12.937Z,5.83
2022-11-03T20:44:19.020Z,5.90
2022-11-03T20:49:25.232Z,5.99
2022-11-03T20:54:31.343Z,6.66
2022-11-03T20:59:38.745Z,7.95
2022-11-03T21:04:43.202Z,7.51
2022-11-03T21:09:49.380Z,6.58
2022-11-03T21:14:55.486Z,5.83
2022-11-03T21:20:01.672Z,3.75
2022-11-03T21:25:07.815Z,6.66
2022-11-03T21:30:13.952Z,6.87
2022-11-03T21:35:20.770Z,5.14
2022-11-03T21:40:27.149Z,5.39
2022-11-03T21:45:33.251Z,4.45
2022-11-03T21:50:39.732Z,6.08
2022-11-03T21:55:45.824Z,4.44
2022-11-03T22:00:52.079Z,5.23
2022-11-03T22:05:58.065Z,5.80
2022-11-03T22:11:04.307Z,5.42
2022-11-03T22:16:10.351Z,5.35
2022-11-03T22:21:16.539Z,4.50
2022-11-03T22:26:22.593Z,6.90
2022-11-03T22:31:28.730Z,6.12
2022-11-03T22:36:34.812Z,6.75
2022-11-03T22:41:41.058Z,7.42
2022-11-03T22:46:47.209Z,6.13
2022-11-03T22:51:53.697Z,4.79
2022-11-03T22:56:59.724Z,7.86
2022-11-03T23:02:05.995Z,4.88
2022-11-03T23:07:11.961Z,6.08
2022-11-03T23:12:18.336Z,5.83
2022-11-03T23:17:24.528Z,5.74
2022-11-03T23:22:30.990Z,7.95
2022-11-03T23:27:37.068Z,6.21
2022-11-03T23:32:43.318Z,7.05
2022-11-03T23:37:49.411Z,6.85
2022-11-03T23:42:55.702Z,5.48
2022-11-03T23:48:01.745Z,5.10
2022-11-03T23:53:08.269Z,6.09
2022-11-03T23:58:14.353Z,5.90
